sensor_id;sensor_type;location;lat;lon;timestamp;P1;durP1;ratioP1;P2;durP2;ratioP2
10100;SDS011;5090;51.258;4.436;2023-01-19T00:01:08;17.97;;;8.80;;
10100;SDS011;5090;51.258;4.436;2023-01-19T00:03:36;16.17;;;8.40;;
10100;SDS011;5090;51.258;4.436;2023-01-19T00:06:05;12.77;;;9.57;;
10100;SDS011;5090;51.258;4.436;2023-01-19T00:08:33;16.73;;;9.00;;
10100;SDS011;5090;51.258;4.436;2023-01-19T00:11:01;14.53;;;9.03;;
10100;SDS011;5090;51.258;4.436;2023-01-19T00:13:30;19.13;;;8.57;;
10100;SDS011;5090;51.258;4.436;2023-01-19T00:15:58;14.03;;;8.33;;
10100;SDS011;5090;51.258;4.436;2023-01-19T00:18:26;11.83;;;8.60;;
10100;SDS011;5090;51.258;4.436;2023-01-19T00:20:54;13.30;;;8.93;;
10100;SDS011;5090;51.258;4.436;2023-01-19T00:23:22;15.10;;;9.17;;
10100;SDS011;5090;51.258;4.436;2023-01-19T00:25:51;12.20;;;8.23;;
10100;SDS011;5090;51.258;4.436;2023-01-19T00:28:19;10.27;;;7.90;;
10100;SDS011;5090;51.258;4.436;2023-01-19T00:30:48;14.57;;;8.47;;
10100;SDS011;5090;51.258;4.436;2023-01-19T00:33:15;9.80;;;7.90;;
10100;SDS011;5090;51.258;4.436;2023-01-19T00:35:43;17.57;;;9.70;;
10100;SDS011;5090;51.258;4.436;2023-01-19T00:38:11;16.27;;;9.07;;
10100;SDS011;5090;51.258;4.436;2023-01-19T00:40:40;16.10;;;7.87;;
10100;SDS011;5090;51.258;4.436;2023-01-19T00:43:08;14.27;;;8.60;;
10100;SDS011;5090;51.258;4.436;2023-01-19T00:45:36;13.47;;;8.40;;
10100;SDS011;5090;51.258;4.436;2023-01-19T00:48:04;16.90;;;8.87;;
10100;SDS011;5090;51.258;4.436;2023-01-19T00:50:32;13.07;;;8.27;;
10100;SDS011;5090;51.258;4.436;2023-01-19T00:53:01;13.47;;;8.80;;
10100;SDS011;5090;51.258;4.436;2023-01-19T00:55:29;11.73;;;9.03;;
10100;SDS011;5090;51.258;4.436;2023-01-19T00:57:57;12.73;;;8.57;;
10100;SDS011;5090;51.258;4.436;2023-01-19T01:00:25;14.43;;;9.40;;
10100;SDS011;5090;51.258;4.436;2023-01-19T01:02:53;16.47;;;8.73;;
10100;SDS011;5090;51.258;4.436;2023-01-19T01:05:22;13.03;;;8.23;;
10100;SDS011;5090;51.258;4.436;2023-01-19T01:07:50;13.50;;;8.63;;
10100;SDS011;5090;51.258;4.436;2023-01-19T01:10:20;17.43;;;9.50;;
10100;SDS011;5090;51.258;4.436;2023-01-19T01:12:47;15.20;;;8.20;;
10100;SDS011;5090;51.258;4.436;2023-01-19T01:15:16;12.77;;;8.17;;
10100;SDS011;5090;51.258;4.436;2023-01-19T01:17:44;16.03;;;9.03;;
10100;SDS011;5090;51.258;4.436;2023-01-19T01:20:14;15.47;;;8.30;;
10100;SDS011;5090;51.258;4.436;2023-01-19T01:22:43;14.37;;;8.57;;
10100;SDS011;5090;51.258;4.436;2023-01-19T01:25:12;14.57;;;8.03;;
10100;SDS011;5090;51.258;4.436;2023-01-19T01:27:39;14.17;;;8.73;;
10100;SDS011;5090;51.258;4.436;2023-01-19T01:30:08;11.40;;;7.60;;
10100;SDS011;5090;51.258;4.436;2023-01-19T01:32:36;15.83;;;8.53;;
10100;SDS011;5090;51.258;4.436;2023-01-19T01:35:05;15.83;;;8.43;;
10100;SDS011;5090;51.258;4.436;2023-01-19T01:37:34;14.70;;;8.53;;
10100;SDS011;5090;51.258;4.436;2023-01-19T01:40:02;18.53;;;8.00;;
10100;SDS011;5090;51.258;4.436;2023-01-19T01:42:30;13.93;;;8.13;;
10100;SDS011;5090;51.258;4.436;2023-01-19T01:44:59;13.33;;;7.70;;
10100;SDS011;5090;51.258;4.436;2023-01-19T01:47:33;12.83;;;8.00;;
10100;SDS011;5090;51.258;4.436;2023-01-19T01:52:45;15.50;;;8.67;;
10100;SDS011;5090;51.258;4.436;2023-01-19T01:55:12;14.20;;;8.33;;
10100;SDS011;5090;51.258;4.436;2023-01-19T01:57:41;14.07;;;8.07;;
10100;SDS011;5090;51.258;4.436;2023-01-19T02:00:09;12.93;;;8.30;;
10100;SDS011;5090;51.258;4.436;2023-01-19T02:02:37;13.83;;;8.13;;
10100;SDS011;5090;51.258;4.436;2023-01-19T02:05:16;15.20;;;8.40;;
10100;SDS011;5090;51.258;4.436;2023-01-19T02:07:45;16.93;;;8.10;;
10100;SDS011;5090;51.258;4.436;2023-01-19T02:10:17;15.50;;;8.30;;
10100;SDS011;5090;51.258;4.436;2023-01-19T02:12:51;11.57;;;7.57;;
10100;SDS011;5090;51.258;4.436;2023-01-19T02:15:25;18.30;;;8.23;;
10100;SDS011;5090;51.258;4.436;2023-01-19T02:17:53;16.90;;;8.40;;
10100;SDS011;5090;51.258;4.436;2023-01-19T02:20:22;14.47;;;9.00;;
10100;SDS011;5090;51.258;4.436;2023-01-19T02:22:50;13.37;;;7.10;;
10100;SDS011;5090;51.258;4.436;2023-01-19T02:25:18;11.53;;;6.27;;
10100;SDS011;5090;51.258;4.436;2023-01-19T02:27:46;14.70;;;7.20;;
10100;SDS011;5090;51.258;4.436;2023-01-19T02:30:15;12.03;;;6.33;;
10100;SDS011;5090;51.258;4.436;2023-01-19T02:32:43;14.27;;;8.10;;
10100;SDS011;5090;51.258;4.436;2023-01-19T02:35:11;15.43;;;7.80;;
10100;SDS011;5090;51.258;4.436;2023-01-19T02:37:39;11.07;;;7.17;;
10100;SDS011;5090;51.258;4.436;2023-01-19T02:40:09;13.50;;;6.87;;
10100;SDS011;5090;51.258;4.436;2023-01-19T02:42:40;12.27;;;6.80;;
10100;SDS011;5090;51.258;4.436;2023-01-19T02:45:07;10.63;;;7.30;;
10100;SDS011;5090;51.258;4.436;2023-01-19T02:47:37;13.23;;;7.30;;
10100;SDS011;5090;51.258;4.436;2023-01-19T02:50:04;19.10;;;7.90;;
10100;SDS011;5090;51.258;4.436;2023-01-19T02:52:32;14.67;;;7.90;;
10100;SDS011;5090;51.258;4.436;2023-01-19T02:55:12;19.43;;;8.83;;
10100;SDS011;5090;51.258;4.436;2023-01-19T02:57:48;14.93;;;8.43;;
10100;SDS011;5090;51.258;4.436;2023-01-19T03:00:28;15.10;;;8.90;;
10100;SDS011;5090;51.258;4.436;2023-01-19T03:03:00;14.83;;;9.07;;
10100;SDS011;5090;51.258;4.436;2023-01-19T03:05:28;12.67;;;8.57;;
10100;SDS011;5090;51.258;4.436;2023-01-19T03:07:57;14.93;;;8.70;;
10100;SDS011;5090;51.258;4.436;2023-01-19T03:10:30;15.43;;;8.47;;
10100;SDS011;5090;51.258;4.436;2023-01-19T03:12:59;18.43;;;9.00;;
10100;SDS011;5090;51.258;4.436;2023-01-19T03:15:30;17.03;;;8.60;;
10100;SDS011;5090;51.258;4.436;2023-01-19T03:17:54;14.10;;;8.13;;
10100;SDS011;5090;51.258;4.436;2023-01-19T03:20:22;20.00;;;8.20;;
10100;SDS011;5090;51.258;4.436;2023-01-19T03:22:52;19.00;;;8.60;;
10100;SDS011;5090;51.258;4.436;2023-01-19T03:25:19;16.60;;;8.37;;
10100;SDS011;5090;51.258;4.436;2023-01-19T03:27:47;14.37;;;8.80;;
10100;SDS011;5090;51.258;4.436;2023-01-19T03:30:16;18.30;;;8.63;;
10100;SDS011;5090;51.258;4.436;2023-01-19T03:32:46;24.43;;;10.37;;
10100;SDS011;5090;51.258;4.436;2023-01-19T03:35:12;18.60;;;9.37;;
10100;SDS011;5090;51.258;4.436;2023-01-19T03:37:41;18.03;;;8.93;;
10100;SDS011;5090;51.258;4.436;2023-01-19T03:40:09;20.27;;;9.30;;
10100;SDS011;5090;51.258;4.436;2023-01-19T03:42:37;15.93;;;8.60;;
10100;SDS011;5090;51.258;4.436;2023-01-19T03:45:06;20.90;;;9.00;;
10100;SDS011;5090;51.258;4.436;2023-01-19T03:47:34;18.03;;;9.10;;
10100;SDS011;5090;51.258;4.436;2023-01-19T03:50:02;15.37;;;8.37;;
10100;SDS011;5090;51.258;4.436;2023-01-19T03:52:31;15.50;;;8.33;;
10100;SDS011;5090;51.258;4.436;2023-01-19T03:54:59;15.67;;;8.13;;
10100;SDS011;5090;51.258;4.436;2023-01-19T03:57:27;19.20;;;8.30;;
10100;SDS011;5090;51.258;4.436;2023-01-19T03:59:55;19.90;;;7.63;;
10100;SDS011;5090;51.258;4.436;2023-01-19T04:02:23;16.50;;;7.93;;
10100;SDS011;5090;51.258;4.436;2023-01-19T04:04:51;18.83;;;8.77;;
10100;SDS011;5090;51.258;4.436;2023-01-19T04:07:20;17.30;;;8.63;;
10100;SDS011;5090;51.258;4.436;2023-01-19T04:09:48;17.10;;;9.00;;
10100;SDS011;5090;51.258;4.436;2023-01-19T04:12:16;16.03;;;8.50;;
10100;SDS011;5090;51.258;4.436;2023-01-19T04:14:44;16.67;;;8.37;;
10100;SDS011;5090;51.258;4.436;2023-01-19T04:17:12;16.20;;;8.77;;
10100;SDS011;5090;51.258;4.436;2023-01-19T04:19:41;13.23;;;8.13;;
10100;SDS011;5090;51.258;4.436;2023-01-19T04:22:09;18.10;;;8.17;;
10100;SDS011;5090;51.258;4.436;2023-01-19T04:24:37;20.27;;;8.90;;
10100;SDS011;5090;51.258;4.436;2023-01-19T04:27:05;14.97;;;7.90;;
10100;SDS011;5090;51.258;4.436;2023-01-19T04:29:33;15.00;;;8.90;;
10100;SDS011;5090;51.258;4.436;2023-01-19T04:32:02;18.27;;;8.43;;
10100;SDS011;5090;51.258;4.436;2023-01-19T04:34:30;14.47;;;8.87;;
10100;SDS011;5090;51.258;4.436;2023-01-19T04:36:58;16.43;;;8.80;;
10100;SDS011;5090;51.258;4.436;2023-01-19T04:39:26;17.63;;;8.23;;
10100;SDS011;5090;51.258;4.436;2023-01-19T04:41:54;14.87;;;8.40;;
10100;SDS011;5090;51.258;4.436;2023-01-19T04:44:25;17.40;;;9.83;;
10100;SDS011;5090;51.258;4.436;2023-01-19T04:46:54;17.70;;;7.73;;
10100;SDS011;5090;51.258;4.436;2023-01-19T04:49:22;13.90;;;7.97;;
10100;SDS011;5090;51.258;4.436;2023-01-19T04:51:52;37.00;;;11.23;;
10100;SDS011;5090;51.258;4.436;2023-01-19T04:54:21;13.47;;;8.27;;
10100;SDS011;5090;51.258;4.436;2023-01-19T04:56:49;16.43;;;8.50;;
10100;SDS011;5090;51.258;4.436;2023-01-19T04:59:23;16.57;;;9.07;;
10100;SDS011;5090;51.258;4.436;2023-01-19T05:01:51;17.23;;;8.17;;
10100;SDS011;5090;51.258;4.436;2023-01-19T05:04:19;16.87;;;8.93;;
10100;SDS011;5090;51.258;4.436;2023-01-19T05:06:47;13.03;;;8.17;;
10100;SDS011;5090;51.258;4.436;2023-01-19T05:09:16;13.53;;;7.90;;
10100;SDS011;5090;51.258;4.436;2023-01-19T05:11:44;16.30;;;8.70;;
10100;SDS011;5090;51.258;4.436;2023-01-19T05:14:12;15.27;;;8.13;;
10100;SDS011;5090;51.258;4.436;2023-01-19T05:16:40;17.03;;;8.37;;
10100;SDS011;5090;51.258;4.436;2023-01-19T05:19:08;17.73;;;8.10;;
10100;SDS011;5090;51.258;4.436;2023-01-19T05:21:37;18.23;;;8.10;;
10100;SDS011;5090;51.258;4.436;2023-01-19T05:24:05;19.00;;;8.33;;
10100;SDS011;5090;51.258;4.436;2023-01-19T05:26:33;14.83;;;8.43;;
10100;SDS011;5090;51.258;4.436;2023-01-19T05:29:02;19.13;;;9.47;;
10100;SDS011;5090;51.258;4.436;2023-01-19T05:31:30;14.63;;;8.00;;
10100;SDS011;5090;51.258;4.436;2023-01-19T05:33:58;23.10;;;9.53;;
10100;SDS011;5090;51.258;4.436;2023-01-19T05:36:26;23.70;;;8.63;;
10100;SDS011;5090;51.258;4.436;2023-01-19T05:38:55;16.17;;;8.03;;
10100;SDS011;5090;51.258;4.436;2023-01-19T05:41:23;17.07;;;8.27;;
10100;SDS011;5090;51.258;4.436;2023-01-19T05:43:51;17.87;;;8.50;;
10100;SDS011;5090;51.258;4.436;2023-01-19T05:46:19;20.83;;;8.77;;
10100;SDS011;5090;51.258;4.436;2023-01-19T05:48:47;15.33;;;8.10;;
10100;SDS011;5090;51.258;4.436;2023-01-19T05:51:16;17.93;;;8.23;;
10100;SDS011;5090;51.258;4.436;2023-01-19T05:53:44;15.37;;;8.20;;
10100;SDS011;5090;51.258;4.436;2023-01-19T05:56:12;18.17;;;7.97;;
10100;SDS011;5090;51.258;4.436;2023-01-19T05:58:40;16.33;;;8.87;;
10100;SDS011;5090;51.258;4.436;2023-01-19T06:01:09;17.50;;;8.00;;
10100;SDS011;5090;51.258;4.436;2023-01-19T06:03:36;18.20;;;8.37;;
10100;SDS011;5090;51.258;4.436;2023-01-19T06:06:05;20.77;;;8.70;;
10100;SDS011;5090;51.258;4.436;2023-01-19T06:08:33;19.00;;;9.17;;
10100;SDS011;5090;51.258;4.436;2023-01-19T06:11:03;20.73;;;9.57;;
10100;SDS011;5090;51.258;4.436;2023-01-19T06:13:29;24.43;;;9.80;;
10100;SDS011;5090;51.258;4.436;2023-01-19T06:15:58;15.03;;;8.77;;
10100;SDS011;5090;51.258;4.436;2023-01-19T06:18:26;23.17;;;10.00;;
10100;SDS011;5090;51.258;4.436;2023-01-19T06:20:54;17.50;;;9.57;;
10100;SDS011;5090;51.258;4.436;2023-01-19T06:23:23;14.13;;;9.07;;
10100;SDS011;5090;51.258;4.436;2023-01-19T06:25:50;22.13;;;9.57;;
10100;SDS011;5090;51.258;4.436;2023-01-19T06:28:19;18.43;;;9.77;;
10100;SDS011;5090;51.258;4.436;2023-01-19T06:30:48;21.67;;;10.63;;
10100;SDS011;5090;51.258;4.436;2023-01-19T06:33:16;15.73;;;10.60;;
10100;SDS011;5090;51.258;4.436;2023-01-19T06:35:45;23.23;;;10.97;;
10100;SDS011;5090;51.258;4.436;2023-01-19T06:38:13;22.80;;;11.87;;
10100;SDS011;5090;51.258;4.436;2023-01-19T06:40:41;20.23;;;10.60;;
10100;SDS011;5090;51.258;4.436;2023-01-19T06:43:09;18.13;;;11.33;;
10100;SDS011;5090;51.258;4.436;2023-01-19T06:45:37;18.57;;;11.37;;
10100;SDS011;5090;51.258;4.436;2023-01-19T06:48:06;23.10;;;11.63;;
10100;SDS011;5090;51.258;4.436;2023-01-19T06:50:34;26.83;;;11.70;;
10100;SDS011;5090;51.258;4.436;2023-01-19T06:53:02;27.07;;;10.57;;
10100;SDS011;5090;51.258;4.436;2023-01-19T06:55:30;22.40;;;11.40;;
10100;SDS011;5090;51.258;4.436;2023-01-19T06:57:58;18.63;;;12.07;;
10100;SDS011;5090;51.258;4.436;2023-01-19T07:00:27;21.77;;;12.07;;
10100;SDS011;5090;51.258;4.436;2023-01-19T07:02:55;22.13;;;11.13;;
10100;SDS011;5090;51.258;4.436;2023-01-19T07:05:23;25.73;;;11.67;;
10100;SDS011;5090;51.258;4.436;2023-01-19T07:07:52;25.00;;;12.90;;
10100;SDS011;5090;51.258;4.436;2023-01-19T07:10:20;22.23;;;12.10;;
10100;SDS011;5090;51.258;4.436;2023-01-19T07:12:48;25.00;;;13.10;;
10100;SDS011;5090;51.258;4.436;2023-01-19T07:15:16;27.83;;;13.17;;
10100;SDS011;5090;51.258;4.436;2023-01-19T07:17:44;25.17;;;11.70;;
10100;SDS011;5090;51.258;4.436;2023-01-19T07:20:12;26.13;;;11.83;;
10100;SDS011;5090;51.258;4.436;2023-01-19T07:22:41;24.73;;;12.17;;
10100;SDS011;5090;51.258;4.436;2023-01-19T07:25:10;28.80;;;11.97;;
10100;SDS011;5090;51.258;4.436;2023-01-19T07:27:38;22.03;;;11.40;;
10100;SDS011;5090;51.258;4.436;2023-01-19T07:30:07;29.87;;;11.90;;
10100;SDS011;5090;51.258;4.436;2023-01-19T07:32:35;24.20;;;11.87;;
10100;SDS011;5090;51.258;4.436;2023-01-19T07:35:04;28.80;;;12.10;;
10100;SDS011;5090;51.258;4.436;2023-01-19T07:37:32;24.97;;;12.03;;
10100;SDS011;5090;51.258;4.436;2023-01-19T07:40:00;22.03;;;11.50;;
10100;SDS011;5090;51.258;4.436;2023-01-19T07:42:28;27.83;;;11.83;;
10100;SDS011;5090;51.258;4.436;2023-01-19T07:44:57;22.97;;;11.50;;
10100;SDS011;5090;51.258;4.436;2023-01-19T07:47:25;26.60;;;13.10;;
10100;SDS011;5090;51.258;4.436;2023-01-19T07:49:53;33.63;;;12.43;;
10100;SDS011;5090;51.258;4.436;2023-01-19T07:52:21;24.17;;;12.37;;
10100;SDS011;5090;51.258;4.436;2023-01-19T07:54:49;27.57;;;11.90;;
10100;SDS011;5090;51.258;4.436;2023-01-19T07:57:18;24.57;;;12.93;;
10100;SDS011;5090;51.258;4.436;2023-01-19T07:59:46;31.70;;;12.67;;
10100;SDS011;5090;51.258;4.436;2023-01-19T08:02:14;26.07;;;12.67;;
10100;SDS011;5090;51.258;4.436;2023-01-19T08:04:42;24.33;;;12.00;;
10100;SDS011;5090;51.258;4.436;2023-01-19T08:07:11;26.73;;;12.37;;
10100;SDS011;5090;51.258;4.436;2023-01-19T08:09:39;22.90;;;11.80;;
10100;SDS011;5090;51.258;4.436;2023-01-19T08:12:07;23.73;;;12.20;;
10100;SDS011;5090;51.258;4.436;2023-01-19T08:14:35;28.97;;;12.80;;
10100;SDS011;5090;51.258;4.436;2023-01-19T08:17:03;22.73;;;12.07;;
10100;SDS011;5090;51.258;4.436;2023-01-19T08:19:32;32.63;;;12.73;;
10100;SDS011;5090;51.258;4.436;2023-01-19T08:22:00;27.17;;;11.93;;
10100;SDS011;5090;51.258;4.436;2023-01-19T08:24:28;23.80;;;12.03;;
10100;SDS011;5090;51.258;4.436;2023-01-19T08:26:57;30.80;;;12.20;;
10100;SDS011;5090;51.258;4.436;2023-01-19T08:29:25;27.40;;;11.93;;
10100;SDS011;5090;51.258;4.436;2023-01-19T08:31:53;26.63;;;12.07;;
10100;SDS011;5090;51.258;4.436;2023-01-19T08:34:21;25.53;;;12.03;;
10100;SDS011;5090;51.258;4.436;2023-01-19T08:36:50;25.37;;;12.20;;
10100;SDS011;5090;51.258;4.436;2023-01-19T08:39:18;23.60;;;12.10;;
10100;SDS011;5090;51.258;4.436;2023-01-19T08:41:46;20.67;;;12.47;;
10100;SDS011;5090;51.258;4.436;2023-01-19T08:44:15;18.37;;;11.60;;
10100;SDS011;5090;51.258;4.436;2023-01-19T08:46:43;26.27;;;12.93;;
10100;SDS011;5090;51.258;4.436;2023-01-19T08:49:11;27.10;;;13.10;;
10100;SDS011;5090;51.258;4.436;2023-01-19T08:51:39;27.97;;;12.43;;
10100;SDS011;5090;51.258;4.436;2023-01-19T08:54:07;28.87;;;13.27;;
10100;SDS011;5090;51.258;4.436;2023-01-19T08:56:36;28.30;;;12.23;;
10100;SDS011;5090;51.258;4.436;2023-01-19T08:59:04;31.20;;;13.30;;
10100;SDS011;5090;51.258;4.436;2023-01-19T09:01:32;25.03;;;13.07;;
10100;SDS011;5090;51.258;4.436;2023-01-19T09:04:00;23.07;;;12.00;;
10100;SDS011;5090;51.258;4.436;2023-01-19T09:06:28;32.27;;;12.97;;
10100;SDS011;5090;51.258;4.436;2023-01-19T09:08:57;22.00;;;11.53;;
10100;SDS011;5090;51.258;4.436;2023-01-19T09:11:25;26.83;;;11.57;;
10100;SDS011;5090;51.258;4.436;2023-01-19T09:13:53;22.43;;;11.90;;
10100;SDS011;5090;51.258;4.436;2023-01-19T09:16:21;21.60;;;11.80;;
10100;SDS011;5090;51.258;4.436;2023-01-19T09:18:49;27.10;;;11.27;;
10100;SDS011;5090;51.258;4.436;2023-01-19T09:21:18;22.83;;;11.70;;
10100;SDS011;5090;51.258;4.436;2023-01-19T09:23:46;26.80;;;11.80;;
10100;SDS011;5090;51.258;4.436;2023-01-19T09:26:14;24.27;;;10.00;;
10100;SDS011;5090;51.258;4.436;2023-01-19T09:28:42;24.17;;;11.03;;
10100;SDS011;5090;51.258;4.436;2023-01-19T09:31:12;19.27;;;9.97;;
10100;SDS011;5090;51.258;4.436;2023-01-19T09:33:40;23.67;;;10.23;;
10100;SDS011;5090;51.258;4.436;2023-01-19T09:36:08;21.97;;;9.83;;
10100;SDS011;5090;51.258;4.436;2023-01-19T09:38:36;24.77;;;9.80;;
10100;SDS011;5090;51.258;4.436;2023-01-19T09:41:08;19.80;;;9.70;;
10100;SDS011;5090;51.258;4.436;2023-01-19T09:43:45;20.83;;;9.67;;
10100;SDS011;5090;51.258;4.436;2023-01-19T09:46:14;16.43;;;8.73;;
10100;SDS011;5090;51.258;4.436;2023-01-19T09:48:46;19.03;;;8.67;;
10100;SDS011;5090;51.258;4.436;2023-01-19T09:51:14;16.73;;;9.00;;
10100;SDS011;5090;51.258;4.436;2023-01-19T09:56:24;19.10;;;8.57;;
10100;SDS011;5090;51.258;4.436;2023-01-19T09:58:53;16.90;;;8.03;;
10100;SDS011;5090;51.258;4.436;2023-01-19T10:01:31;22.50;;;8.37;;
10100;SDS011;5090;51.258;4.436;2023-01-19T10:04:06;17.43;;;9.00;;
10100;SDS011;5090;51.258;4.436;2023-01-19T10:06:29;17.70;;;8.53;;
10100;SDS011;5090;51.258;4.436;2023-01-19T10:09:05;26.37;;;9.93;;
10100;SDS011;5090;51.258;4.436;2023-01-19T10:11:33;19.63;;;9.67;;
10100;SDS011;5090;51.258;4.436;2023-01-19T10:13:58;14.80;;;8.07;;
10100;SDS011;5090;51.258;4.436;2023-01-19T10:16:33;18.03;;;7.90;;
10100;SDS011;5090;51.258;4.436;2023-01-19T10:19:01;12.40;;;6.47;;
10100;SDS011;5090;51.258;4.436;2023-01-19T10:21:30;12.90;;;7.40;;
10100;SDS011;5090;51.258;4.436;2023-01-19T10:23:57;13.23;;;7.20;;
10100;SDS011;5090;51.258;4.436;2023-01-19T10:26:30;11.53;;;6.53;;
10100;SDS011;5090;51.258;4.436;2023-01-19T10:28:55;18.47;;;7.93;;
10100;SDS011;5090;51.258;4.436;2023-01-19T10:31:23;14.17;;;7.27;;
10100;SDS011;5090;51.258;4.436;2023-01-19T10:33:51;14.77;;;6.77;;
10100;SDS011;5090;51.258;4.436;2023-01-19T10:36:27;14.00;;;6.77;;
10100;SDS011;5090;51.258;4.436;2023-01-19T10:38:47;12.27;;;6.20;;
10100;SDS011;5090;51.258;4.436;2023-01-19T10:41:17;11.13;;;6.10;;
10100;SDS011;5090;51.258;4.436;2023-01-19T10:43:45;12.87;;;5.90;;
10100;SDS011;5090;51.258;4.436;2023-01-19T10:46:19;8.00;;;5.00;;
10100;SDS011;5090;51.258;4.436;2023-01-19T10:48:46;11.53;;;5.53;;
10100;SDS011;5090;51.258;4.436;2023-01-19T10:51:13;11.37;;;5.43;;
10100;SDS011;5090;51.258;4.436;2023-01-19T10:53:42;11.20;;;5.87;;
10100;SDS011;5090;51.258;4.436;2023-01-19T10:56:13;12.07;;;5.80;;
10100;SDS011;5090;51.258;4.436;2023-01-19T10:58:39;10.50;;;5.67;;
10100;SDS011;5090;51.258;4.436;2023-01-19T11:01:13;10.77;;;5.60;;
10100;SDS011;5090;51.258;4.436;2023-01-19T11:03:40;13.37;;;5.77;;
10100;SDS011;5090;51.258;4.436;2023-01-19T11:06:20;15.13;;;6.03;;
10100;SDS011;5090;51.258;4.436;2023-01-19T11:08:49;13.13;;;6.43;;
10100;SDS011;5090;51.258;4.436;2023-01-19T11:11:18;8.90;;;6.20;;
10100;SDS011;5090;51.258;4.436;2023-01-19T11:14:00;10.00;;;6.27;;
10100;SDS011;5090;51.258;4.436;2023-01-19T11:16:15;15.87;;;6.67;;
10100;SDS011;5090;51.258;4.436;2023-01-19T11:18:42;13.67;;;6.80;;
10100;SDS011;5090;51.258;4.436;2023-01-19T11:21:13;11.43;;;6.40;;
10100;SDS011;5090;51.258;4.436;2023-01-19T11:23:40;15.40;;;7.33;;
10100;SDS011;5090;51.258;4.436;2023-01-19T11:26:12;12.53;;;7.10;;
10100;SDS011;5090;51.258;4.436;2023-01-19T11:28:42;13.27;;;7.50;;
10100;SDS011;5090;51.258;4.436;2023-01-19T11:31:17;11.53;;;7.07;;
10100;SDS011;5090;51.258;4.436;2023-01-19T11:33:48;15.27;;;6.67;;
10100;SDS011;5090;51.258;4.436;2023-01-19T11:36:16;15.53;;;6.93;;
10100;SDS011;5090;51.258;4.436;2023-01-19T11:38:44;18.70;;;7.73;;
10100;SDS011;5090;51.258;4.436;2023-01-19T11:41:18;17.60;;;9.07;;
10100;SDS011;5090;51.258;4.436;2023-01-19T11:43:46;22.27;;;9.23;;
10100;SDS011;5090;51.258;4.436;2023-01-19T11:46:13;16.83;;;8.27;;
10100;SDS011;5090;51.258;4.436;2023-01-19T11:48:43;12.17;;;7.93;;
10100;SDS011;5090;51.258;4.436;2023-01-19T11:51:12;13.90;;;8.63;;
10100;SDS011;5090;51.258;4.436;2023-01-19T11:53:39;16.87;;;8.30;;
10100;SDS011;5090;51.258;4.436;2023-01-19T11:56:09;15.83;;;8.37;;
10100;SDS011;5090;51.258;4.436;2023-01-19T11:58:37;19.30;;;7.83;;
10100;SDS011;5090;51.258;4.436;2023-01-19T12:01:06;15.80;;;9.07;;
10100;SDS011;5090;51.258;4.436;2023-01-19T12:03:41;22.30;;;10.30;;
10100;SDS011;5090;51.258;4.436;2023-01-19T12:06:10;21.77;;;12.53;;
10100;SDS011;5090;51.258;4.436;2023-01-19T12:08:39;24.13;;;12.27;;
10100;SDS011;5090;51.258;4.436;2023-01-19T12:11:07;21.70;;;13.10;;
10100;SDS011;5090;51.258;4.436;2023-01-19T12:13:34;21.60;;;13.37;;
10100;SDS011;5090;51.258;4.436;2023-01-19T12:16:06;24.03;;;13.67;;
10100;SDS011;5090;51.258;4.436;2023-01-19T12:18:37;22.77;;;13.57;;
10100;SDS011;5090;51.258;4.436;2023-01-19T12:21:04;25.27;;;14.43;;
10100;SDS011;5090;51.258;4.436;2023-01-19T12:23:39;33.83;;;18.30;;
10100;SDS011;5090;51.258;4.436;2023-01-19T12:26:07;32.63;;;17.77;;
10100;SDS011;5090;51.258;4.436;2023-01-19T12:28:32;27.77;;;17.83;;
10100;SDS011;5090;51.258;4.436;2023-01-19T12:30:59;33.03;;;17.77;;
10100;SDS011;5090;51.258;4.436;2023-01-19T12:33:31;34.30;;;16.30;;
10100;SDS011;5090;51.258;4.436;2023-01-19T12:38:55;28.83;;;15.10;;
10100;SDS011;5090;51.258;4.436;2023-01-19T12:41:27;27.73;;;16.20;;
10100;SDS011;5090;51.258;4.436;2023-01-19T12:44:32;23.20;;;15.17;;
10100;SDS011;5090;51.258;4.436;2023-01-19T12:46:45;33.53;;;17.07;;
10100;SDS011;5090;51.258;4.436;2023-01-19T12:51:47;29.40;;;17.63;;
10100;SDS011;5090;51.258;4.436;2023-01-19T12:54:22;31.23;;;16.80;;
10100;SDS011;5090;51.258;4.436;2023-01-19T12:56:47;34.67;;;17.70;;
10100;SDS011;5090;51.258;4.436;2023-01-19T12:59:21;36.43;;;18.57;;
10100;SDS011;5090;51.258;4.436;2023-01-19T13:02:05;34.67;;;17.83;;
10100;SDS011;5090;51.258;4.436;2023-01-19T13:09:31;30.77;;;16.70;;
10100;SDS011;5090;51.258;4.436;2023-01-19T13:14:34;38.57;;;18.40;;
10100;SDS011;5090;51.258;4.436;2023-01-19T13:17:01;34.50;;;17.30;;
10100;SDS011;5090;51.258;4.436;2023-01-19T13:19:31;45.73;;;20.33;;
10100;SDS011;5090;51.258;4.436;2023-01-19T13:21:57;35.73;;;19.17;;
10100;SDS011;5090;51.258;4.436;2023-01-19T13:24:28;42.80;;;21.67;;
10100;SDS011;5090;51.258;4.436;2023-01-19T13:26:54;37.53;;;21.07;;
10100;SDS011;5090;51.258;4.436;2023-01-19T13:29:27;46.03;;;21.53;;
10100;SDS011;5090;51.258;4.436;2023-01-19T13:31:53;44.30;;;22.67;;
10100;SDS011;5090;51.258;4.436;2023-01-19T13:34:22;43.97;;;21.80;;
10100;SDS011;5090;51.258;4.436;2023-01-19T13:36:50;43.00;;;20.47;;
10100;SDS011;5090;51.258;4.436;2023-01-19T13:39:19;53.87;;;22.40;;
10100;SDS011;5090;51.258;4.436;2023-01-19T13:41:46;39.93;;;20.60;;
10100;SDS011;5090;51.258;4.436;2023-01-19T13:44:19;40.00;;;21.47;;
10100;SDS011;5090;51.258;4.436;2023-01-19T13:46:45;40.10;;;21.47;;
10100;SDS011;5090;51.258;4.436;2023-01-19T13:49:18;44.80;;;21.87;;
10100;SDS011;5090;51.258;4.436;2023-01-19T13:52:02;41.90;;;21.10;;
10100;SDS011;5090;51.258;4.436;2023-01-19T13:54:14;41.27;;;20.43;;
10100;SDS011;5090;51.258;4.436;2023-01-19T13:56:46;36.63;;;20.07;;
10100;SDS011;5090;51.258;4.436;2023-01-19T13:59:14;38.07;;;20.93;;
10100;SDS011;5090;51.258;4.436;2023-01-19T14:01:42;41.63;;;20.17;;
10100;SDS011;5090;51.258;4.436;2023-01-19T14:06:44;39.97;;;22.63;;
10100;SDS011;5090;51.258;4.436;2023-01-19T14:09:13;45.93;;;22.97;;
10100;SDS011;5090;51.258;4.436;2023-01-19T14:11:41;47.07;;;21.87;;
10100;SDS011;5090;51.258;4.436;2023-01-19T14:16:43;43.60;;;23.03;;
10100;SDS011;5090;51.258;4.436;2023-01-19T14:19:11;32.27;;;20.27;;
10100;SDS011;5090;51.258;4.436;2023-01-19T14:21:39;34.30;;;21.37;;
10100;SDS011;5090;51.258;4.436;2023-01-19T14:24:09;40.37;;;22.63;;
10100;SDS011;5090;51.258;4.436;2023-01-19T14:26:40;38.80;;;21.20;;
10100;SDS011;5090;51.258;4.436;2023-01-19T14:29:13;38.77;;;20.60;;
10100;SDS011;5090;51.258;4.436;2023-01-19T14:31:43;40.87;;;20.90;;
10100;SDS011;5090;51.258;4.436;2023-01-19T14:36:45;37.37;;;21.87;;
10100;SDS011;5090;51.258;4.436;2023-01-19T14:39:15;36.20;;;20.07;;
10100;SDS011;5090;51.258;4.436;2023-01-19T14:41:43;38.87;;;21.93;;
10100;SDS011;5090;51.258;4.436;2023-01-19T14:44:13;37.20;;;20.87;;
10100;SDS011;5090;51.258;4.436;2023-01-19T14:46:42;40.07;;;21.73;;
10100;SDS011;5090;51.258;4.436;2023-01-19T14:49:12;41.17;;;21.57;;
10100;SDS011;5090;51.258;4.436;2023-01-19T14:51:35;39.07;;;20.90;;
10100;SDS011;5090;51.258;4.436;2023-01-19T14:54:03;40.30;;;21.37;;
10100;SDS011;5090;51.258;4.436;2023-01-19T14:56:32;37.10;;;20.20;;
10100;SDS011;5090;51.258;4.436;2023-01-19T14:59:00;36.30;;;19.13;;
10100;SDS011;5090;51.258;4.436;2023-01-19T15:01:28;32.17;;;18.63;;
10100;SDS011;5090;51.258;4.436;2023-01-19T15:03:56;36.83;;;19.60;;
10100;SDS011;5090;51.258;4.436;2023-01-19T15:06:24;32.70;;;18.67;;
10100;SDS011;5090;51.258;4.436;2023-01-19T15:08:53;37.07;;;19.70;;
10100;SDS011;5090;51.258;4.436;2023-01-19T15:11:23;42.77;;;19.67;;
10100;SDS011;5090;51.258;4.436;2023-01-19T15:13:50;37.70;;;20.57;;
10100;SDS011;5090;51.258;4.436;2023-01-19T15:16:18;34.57;;;19.17;;
10100;SDS011;5090;51.258;4.436;2023-01-19T15:18:46;40.77;;;19.73;;